Chicago, Illinois
Traffic Map
Current Weather Conditions
Chicago, Illinois
Clear
Clear

Feels Like: -4°
Wind Chill: -4° Ceiling: Unl
Heat Index: Visibility: 10mi
Dew Point: -4° Wind: 6mph
Humidity: 63% Direction: 220° (SW)
Pressure: 30.67in Gusts: 0mph
Raw Report DataKMDW 280453Z 22005KT 10SM CLR M14/M20 A3067 RMK AO2 SLP411 T11441200
Traffic Incident Summary
Active as of:
Severity:
Category:
InformationThere was an issue retrieving the traffic information for this location. Please try a different location or try again shortly.
Advertisements
Track Severe Weather on mobile